createdAt,value
2022-10-09T00:01:55.301Z,8.71
2022-10-09T00:04:22.604Z,8.69
2022-10-09T00:06:49.889Z,8.64
2022-10-09T00:09:18.636Z,8.68
2022-10-09T00:11:47.311Z,8.63
2022-10-09T00:14:14.637Z,8.64
2022-10-09T00:16:41.957Z,8.60
2022-10-09T00:19:09.289Z,8.58
2022-10-09T00:21:36.658Z,8.56
2022-10-09T00:24:05.681Z,8.49
2022-10-09T00:26:33.379Z,8.52
2022-10-09T00:29:02.345Z,8.59
2022-10-09T00:31:30.266Z,8.58
2022-10-09T00:33:57.713Z,8.61
2022-10-09T00:36:26.487Z,8.62
2022-10-09T00:38:54.820Z,8.58
2022-10-09T00:41:24.271Z,8.63
2022-10-09T00:43:53.217Z,8.59
2022-10-09T00:46:27.169Z,8.60
2022-10-09T00:49:05.880Z,8.58
2022-10-09T00:51:34.855Z,8.53
2022-10-09T00:54:05.178Z,8.55
2022-10-09T00:56:32.899Z,8.49
2022-10-09T00:59:00.503Z,8.55
2022-10-09T01:01:29.371Z,8.52
2022-10-09T01:03:56.629Z,8.47
2022-10-09T01:06:33.023Z,8.45
2022-10-09T01:09:06.381Z,8.47
2022-10-09T01:11:41.845Z,8.41
2022-10-09T01:14:19.746Z,8.34
2022-10-09T01:16:57.077Z,8.28
2022-10-09T01:19:41.917Z,8.31
2022-10-09T01:22:20.852Z,8.30
2022-10-09T01:24:55.641Z,8.29
2022-10-09T01:27:26.291Z,8.32
2022-10-09T01:29:56.582Z,8.26
2022-10-09T01:32:28.242Z,8.25
2022-10-09T01:34:56.770Z,8.25
2022-10-09T01:37:24.840Z,8.22
2022-10-09T01:39:52.519Z,8.13
2022-10-09T01:42:22.431Z,8.15
2022-10-09T01:44:51.173Z,8.11
2022-10-09T01:47:20.617Z,8.11
2022-10-09T01:49:54.597Z,8.13
2022-10-09T01:52:40.389Z,8.10
2022-10-09T01:55:26.485Z,8.06
2022-10-09T01:58:01.469Z,8.10
2022-10-09T02:00:33.366Z,8.08
2022-10-09T02:03:02.931Z,8.07
2022-10-09T02:05:31.810Z,8.00
2022-10-09T02:07:59.848Z,7.98
2022-10-09T02:10:27.931Z,8.02
2022-10-09T02:12:59.098Z,7.98
2022-10-09T02:15:31.056Z,7.96
2022-10-09T02:18:05.579Z,7.99
2022-10-09T02:20:36.445Z,7.96
2022-10-09T02:23:07.458Z,7.92
2022-10-09T02:25:35.902Z,7.93
2022-10-09T02:28:04.499Z,7.95
2022-10-09T02:30:50.129Z,7.99
2022-10-09T02:33:18.920Z,8.01
2022-10-09T02:35:46.279Z,8.01
2022-10-09T02:38:13.414Z,8.03
2022-10-09T02:40:40.824Z,7.99
2022-10-09T02:43:08.339Z,7.95
2022-10-09T02:45:35.528Z,8.00
2022-10-09T02:48:02.688Z,7.98
2022-10-09T02:50:31.298Z,7.96
2022-10-09T02:52:58.466Z,7.99
2022-10-09T02:55:25.728Z,7.97
2022-10-09T02:57:53.020Z,7.96
2022-10-09T03:00:20.245Z,7.95
2022-10-09T03:02:47.885Z,7.95
2022-10-09T03:05:15.407Z,7.97
2022-10-09T03:07:51.189Z,7.95
2022-10-09T03:10:19.151Z,7.92
2022-10-09T03:12:46.952Z,7.91
2022-10-09T03:15:16.028Z,7.87
2022-10-09T03:17:43.486Z,7.88
2022-10-09T03:20:10.861Z,7.86
2022-10-09T03:22:38.357Z,7.88
2022-10-09T03:25:08.565Z,7.84
2022-10-09T03:27:35.924Z,7.86
2022-10-09T03:30:03.627Z,7.81
2022-10-09T03:32:30.880Z,7.87
2022-10-09T03:34:58.049Z,7.85
2022-10-09T03:37:25.266Z,7.83
2022-10-09T03:39:52.394Z,7.82
2022-10-09T03:42:21.319Z,7.83
2022-10-09T03:44:48.512Z,7.83
2022-10-09T03:47:15.776Z,7.80
2022-10-09T03:49:43.999Z,7.84
2022-10-09T03:52:11.619Z,7.83
2022-10-09T03:54:38.797Z,7.85
2022-10-09T03:57:05.949Z,7.86
2022-10-09T03:59:34.656Z,7.83
2022-10-09T04:02:02.018Z,7.88
2022-10-09T04:04:29.452Z,7.91
2022-10-09T04:06:56.692Z,7.91
2022-10-09T04:09:23.920Z,7.95
2022-10-09T04:11:51.431Z,7.99
2022-10-09T04:14:18.690Z,8.09
2022-10-09T04:16:47.320Z,8.11
2022-10-09T04:19:14.903Z,8.10
2022-10-09T04:21:42.113Z,8.11
2022-10-09T04:24:09.411Z,8.05
2022-10-09T04:26:36.618Z,8.05
2022-10-09T04:29:03.913Z,8.05
2022-10-09T04:31:31.202Z,8.07
2022-10-09T04:33:59.910Z,8.09
2022-10-09T04:36:27.123Z,8.12
2022-10-09T04:38:54.757Z,8.14
2022-10-09T04:41:21.981Z,8.15
2022-10-09T04:43:49.239Z,8.11
2022-10-09T04:46:16.723Z,8.14
2022-10-09T04:48:46.081Z,8.12
2022-10-09T04:51:15.591Z,8.10
2022-10-09T04:53:44.176Z,8.12
2022-10-09T04:56:15.383Z,8.11
2022-10-09T04:58:43.298Z,8.17
2022-10-09T05:01:13.527Z,8.18
2022-10-09T05:03:40.850Z,8.25
2022-10-09T05:06:10.375Z,8.35
2022-10-09T05:08:39.298Z,8.51
2022-10-09T05:11:08.633Z,8.53
2022-10-09T05:13:38.042Z,8.65
2022-10-09T05:16:07.355Z,8.76
2022-10-09T05:18:35.251Z,8.75
2022-10-09T05:21:04.427Z,8.84
2022-10-09T05:23:32.949Z,8.80
2022-10-09T05:26:04.747Z,8.84
2022-10-09T05:28:32.660Z,9.00
2022-10-09T05:31:00.334Z,9.08
2022-10-09T05:33:29.156Z,9.24
2022-10-09T05:35:59.348Z,9.37
2022-10-09T05:38:28.009Z,9.52
2022-10-09T05:40:57.112Z,9.63
2022-10-09T05:43:26.211Z,9.69
2022-10-09T05:45:54.047Z,9.67
2022-10-09T05:48:22.311Z,9.71
2022-10-09T05:50:49.500Z,9.79
2022-10-09T05:53:16.692Z,9.96
2022-10-09T05:55:43.807Z,10.02
2022-10-09T05:58:11.065Z,10.12
2022-10-09T06:00:39.737Z,10.24
2022-10-09T06:03:06.909Z,10.35
2022-10-09T06:05:34.194Z,10.48
2022-10-09T06:08:01.537Z,10.54
2022-10-09T06:10:32.235Z,10.58
2022-10-09T06:12:59.905Z,10.69
2022-10-09T06:15:27.095Z,10.73
2022-10-09T06:17:55.779Z,10.73
2022-10-09T06:20:22.918Z,10.74
2022-10-09T06:22:50.273Z,10.67
2022-10-09T06:25:17.748Z,10.70
2022-10-09T06:27:45.134Z,10.70
2022-10-09T06:30:13.139Z,10.79
2022-10-09T06:32:40.369Z,10.75
2022-10-09T06:35:09.919Z,10.82
2022-10-09T06:37:37.296Z,10.94
2022-10-09T06:40:05.432Z,11.01
2022-10-09T06:42:32.601Z,11.14
2022-10-09T06:45:00.286Z,11.29
2022-10-09T06:47:27.460Z,11.41
2022-10-09T06:49:54.696Z,11.50
2022-10-09T06:52:23.353Z,11.54
2022-10-09T06:54:50.467Z,11.63
2022-10-09T06:57:18.107Z,11.68
2022-10-09T06:59:45.902Z,11.74
2022-10-09T07:02:13.440Z,11.78
2022-10-09T07:04:40.633Z,11.96
2022-10-09T07:07:07.868Z,11.95
2022-10-09T07:09:36.618Z,12.01
2022-10-09T07:12:03.977Z,12.07
2022-10-09T07:14:31.167Z,12.16
2022-10-09T07:16:58.856Z,12.26
2022-10-09T07:19:26.140Z,12.16
2022-10-09T07:21:53.478Z,12.33
2022-10-09T07:24:21.432Z,12.39
2022-10-09T07:26:50.450Z,12.47
2022-10-09T07:29:19.276Z,12.66
2022-10-09T07:31:46.522Z,12.81
2022-10-09T07:34:13.909Z,12.88
2022-10-09T07:36:41.035Z,12.91
2022-10-09T07:39:08.548Z,13.08
2022-10-09T07:41:35.773Z,13.23
2022-10-09T07:44:04.449Z,13.25
2022-10-09T07:46:33.964Z,13.30
2022-10-09T07:49:01.703Z,13.29
2022-10-09T07:51:30.212Z,13.40
2022-10-09T07:53:57.981Z,13.54
2022-10-09T07:56:28.246Z,13.64
2022-10-09T07:58:57.306Z,13.76
2022-10-09T08:01:30.770Z,13.89
2022-10-09T08:03:59.145Z,14.01
2022-10-09T08:06:26.814Z,14.04
2022-10-09T08:08:55.489Z,14.18
2022-10-09T08:11:24.565Z,14.41
2022-10-09T08:13:53.314Z,14.44
2022-10-09T08:16:22.354Z,14.55
2022-10-09T08:18:54.643Z,14.47
2022-10-09T08:21:21.865Z,14.44
2022-10-09T08:23:54.169Z,14.49
2022-10-09T08:26:23.398Z,14.65
2022-10-09T08:28:51.541Z,14.77
2022-10-09T08:31:18.945Z,14.89
2022-10-09T08:33:46.247Z,14.94
2022-10-09T08:36:17.732Z,14.96
2022-10-09T08:38:47.494Z,15.11
2022-10-09T08:41:24.780Z,15.27
2022-10-09T08:43:57.894Z,15.43
2022-10-09T08:46:31.174Z,15.46
2022-10-09T08:49:02.290Z,15.60
2022-10-09T08:51:35.376Z,15.58
2022-10-09T08:54:10.605Z,15.69
2022-10-09T08:56:38.506Z,15.79
2022-10-09T08:59:05.948Z,16.04
2022-10-09T09:01:39.874Z,16.07
2022-10-09T09:04:38.403Z,15.98
2022-10-09T09:07:14.129Z,16.10
2022-10-09T09:09:50.609Z,16.27
2022-10-09T09:12:25.074Z,16.23
2022-10-09T09:15:05.682Z,16.27
2022-10-09T09:17:41.272Z,16.41
2022-10-09T09:20:15.986Z,16.59
2022-10-09T09:22:48.559Z,16.55
2022-10-09T09:25:22.817Z,16.51
2022-10-09T09:27:52.531Z,16.53
2022-10-09T09:30:24.610Z,16.64
2022-10-09T09:33:00.800Z,16.71
2022-10-09T09:35:36.136Z,16.73
2022-10-09T09:38:04.832Z,16.83
2022-10-09T09:40:37.218Z,16.99
2022-10-09T09:43:13.699Z,17.03
2022-10-09T09:45:43.872Z,17.15
2022-10-09T09:48:16.068Z,17.18
2022-10-09T09:50:56.235Z,17.11
2022-10-09T09:53:37.791Z,17.21
2022-10-09T09:56:05.907Z,17.49
2022-10-09T09:58:36.201Z,17.33
2022-10-09T10:01:06.628Z,17.22
2022-10-09T10:03:35.522Z,17.29
2022-10-09T10:06:03.097Z,17.33
2022-10-09T10:08:31.764Z,17.41
2022-10-09T10:11:02.877Z,17.49
2022-10-09T10:13:35.912Z,17.60
2022-10-09T10:16:04.512Z,17.60
2022-10-09T10:18:38.820Z,17.76
2022-10-09T10:21:10.398Z,17.83
2022-10-09T10:23:41.154Z,17.97
2022-10-09T10:26:19.952Z,18.07
2022-10-09T10:28:52.042Z,17.98
2022-10-09T10:31:39.070Z,18.03
2022-10-09T10:34:15.362Z,17.90
2022-10-09T10:36:42.837Z,17.83
2022-10-09T10:39:21.089Z,17.84
2022-10-09T10:41:53.301Z,17.64
2022-10-09T10:44:25.860Z,17.57
2022-10-09T10:47:00.178Z,17.54
2022-10-09T10:49:32.915Z,17.68
2022-10-09T10:52:12.111Z,17.66
2022-10-09T10:54:42.963Z,17.61
2022-10-09T10:57:16.966Z,17.72
2022-10-09T10:59:56.567Z,17.76
2022-10-09T11:02:49.234Z,17.69
2022-10-09T11:05:28.527Z,17.67
2022-10-09T11:08:08.114Z,17.71
2022-10-09T11:10:48.528Z,17.75
2022-10-09T11:13:23.239Z,17.67
2022-10-09T11:16:00.418Z,17.69
2022-10-09T11:18:44.973Z,17.72
2022-10-09T11:21:27.718Z,17.65
2022-10-09T11:24:11.762Z,17.64
2022-10-09T11:26:45.242Z,17.60
2022-10-09T11:29:18.603Z,17.35
2022-10-09T11:31:50.626Z,17.45
2022-10-09T11:34:21.744Z,17.38
2022-10-09T11:36:49.073Z,17.39
2022-10-09T11:39:19.995Z,17.22
2022-10-09T11:41:49.078Z,17.11
2022-10-09T11:44:31.804Z,17.02
2022-10-09T11:47:09.478Z,17.00
2022-10-09T11:49:46.615Z,17.06
2022-10-09T11:52:21.900Z,17.14
2022-10-09T11:54:49.113Z,17.16
2022-10-09T11:57:27.400Z,17.14
2022-10-09T12:00:06.337Z,17.23
2022-10-09T12:02:34.074Z,17.05
2022-10-09T12:05:01.655Z,16.98
2022-10-09T12:07:33.296Z,17.05
2022-10-09T12:10:05.770Z,16.96
2022-10-09T12:12:34.828Z,16.93
2022-10-09T12:15:22.568Z,16.91
2022-10-09T12:17:50.518Z,16.80
2022-10-09T12:20:21.565Z,16.82
2022-10-09T12:23:14.222Z,16.76
2022-10-09T12:25:43.800Z,16.67
2022-10-09T12:28:20.527Z,16.66
2022-10-09T12:30:50.724Z,16.69
2022-10-09T12:33:25.424Z,16.70
2022-10-09T12:36:06.390Z,16.67
2022-10-09T12:38:33.911Z,16.64
2022-10-09T12:41:04.641Z,16.59
2022-10-09T12:43:33.020Z,16.58
2022-10-09T12:46:01.847Z,16.55
2022-10-09T12:48:35.643Z,16.58
2022-10-09T12:51:02.907Z,16.51
2022-10-09T12:53:30.225Z,16.49
2022-10-09T12:56:00.831Z,16.40
2022-10-09T12:58:30.271Z,16.42
2022-10-09T13:01:00.349Z,16.39
2022-10-09T13:03:36.509Z,16.37
2022-10-09T13:06:05.661Z,16.38
2022-10-09T13:08:36.144Z,16.36
2022-10-09T13:11:11.477Z,16.28
2022-10-09T13:13:39.282Z,16.25
2022-10-09T13:16:09.649Z,16.16
2022-10-09T13:18:38.645Z,16.18
2022-10-09T13:21:19.031Z,16.18
2022-10-09T13:23:46.488Z,16.19
2022-10-09T13:26:20.353Z,16.17
2022-10-09T13:28:47.601Z,16.14
2022-10-09T13:31:14.964Z,16.18
2022-10-09T13:33:43.618Z,15.94
2022-10-09T13:36:12.892Z,15.76
2022-10-09T13:38:40.050Z,15.41
2022-10-09T13:41:10.007Z,15.07
2022-10-09T13:43:37.197Z,14.86
2022-10-09T13:46:04.481Z,14.76
2022-10-09T13:48:31.797Z,14.64
2022-10-09T13:51:00.607Z,14.48
2022-10-09T13:53:28.141Z,14.27
2022-10-09T13:56:00.027Z,14.09
2022-10-09T13:58:28.797Z,13.96
2022-10-09T14:00:56.264Z,13.82
2022-10-09T14:03:23.454Z,13.76
2022-10-09T14:05:50.787Z,13.73
2022-10-09T14:08:19.394Z,13.76
2022-10-09T14:10:46.819Z,13.73
2022-10-09T14:13:14.712Z,13.73
2022-10-09T14:15:42.138Z,13.74
2022-10-09T14:18:09.523Z,13.74
2022-10-09T14:20:36.705Z,13.71
2022-10-09T14:23:03.958Z,13.62
2022-10-09T14:25:34.340Z,13.58
2022-10-09T14:28:01.656Z,13.59
2022-10-09T14:30:29.160Z,13.63
2022-10-09T14:32:56.715Z,13.65
2022-10-09T14:35:24.233Z,13.60
2022-10-09T14:37:51.592Z,13.56
2022-10-09T14:40:18.835Z,13.38
2022-10-09T14:42:47.816Z,13.30
2022-10-09T14:45:15.201Z,13.30
2022-10-09T14:47:42.493Z,13.23
2022-10-09T14:50:10.443Z,13.11
2022-10-09T14:52:37.746Z,13.02
2022-10-09T14:55:05.788Z,12.92
2022-10-09T14:57:35.549Z,12.95
2022-10-09T15:00:06.316Z,12.92
2022-10-09T15:02:33.584Z,12.94
2022-10-09T15:05:01.044Z,12.85
2022-10-09T15:07:28.421Z,12.69
2022-10-09T15:09:57.052Z,12.63
2022-10-09T15:12:24.287Z,12.56
2022-10-09T15:14:51.584Z,12.53
2022-10-09T15:17:20.210Z,12.53
2022-10-09T15:19:47.653Z,12.49
2022-10-09T15:22:14.900Z,12.38
2022-10-09T15:24:42.177Z,12.35
2022-10-09T15:27:09.439Z,12.37
2022-10-09T15:29:36.825Z,12.33
2022-10-09T15:32:04.068Z,12.28
2022-10-09T15:34:33.052Z,12.22
2022-10-09T15:37:00.872Z,12.26
2022-10-09T15:39:28.140Z,12.29
2022-10-09T15:41:55.505Z,12.30
2022-10-09T15:44:22.722Z,12.32
2022-10-09T15:46:50.285Z,12.34
2022-10-09T15:49:18.115Z,12.33
2022-10-09T15:51:46.723Z,12.31
2022-10-09T15:54:14.882Z,12.25
2022-10-09T15:56:42.472Z,12.08
2022-10-09T15:59:11.783Z,11.91
2022-10-09T16:01:39.320Z,11.82
2022-10-09T16:04:06.805Z,11.82
2022-10-09T16:06:34.093Z,11.85
2022-10-09T16:09:04.595Z,11.88
2022-10-09T16:11:32.125Z,11.87
2022-10-09T16:13:59.588Z,11.86
2022-10-09T16:16:27.840Z,11.85
2022-10-09T16:18:56.027Z,11.83
2022-10-09T16:21:25.257Z,11.74
2022-10-09T16:23:58.058Z,11.83
2022-10-09T16:26:29.351Z,11.80
2022-10-09T16:28:56.664Z,11.72
2022-10-09T16:31:25.988Z,11.65
2022-10-09T16:33:53.912Z,11.64
2022-10-09T16:36:21.216Z,11.62
2022-10-09T16:38:48.752Z,11.60
2022-10-09T16:41:18.068Z,11.59
2022-10-09T16:43:48.037Z,11.72
2022-10-09T16:46:20.438Z,11.76
2022-10-09T16:48:49.025Z,11.79
2022-10-09T16:51:18.276Z,11.86
2022-10-09T16:53:49.037Z,11.88
2022-10-09T16:56:20.025Z,11.94
2022-10-09T16:58:49.221Z,11.93
2022-10-09T17:01:16.549Z,11.96
2022-10-09T17:03:43.987Z,11.97
2022-10-09T17:06:14.041Z,11.98
2022-10-09T17:08:41.294Z,11.99
2022-10-09T17:11:08.656Z,11.98
2022-10-09T17:13:36.703Z,11.95
2022-10-09T17:16:06.933Z,11.97
2022-10-09T17:18:35.604Z,11.99
2022-10-09T17:21:03.474Z,11.98
2022-10-09T17:23:31.138Z,11.97
2022-10-09T17:25:59.021Z,11.98
2022-10-09T17:28:26.545Z,12.05
2022-10-09T17:30:53.932Z,12.05
2022-10-09T17:33:22.562Z,12.05
2022-10-09T17:35:49.876Z,12.02
2022-10-09T17:38:17.153Z,11.97
2022-10-09T17:40:44.813Z,11.90
2022-10-09T17:43:11.971Z,11.87
2022-10-09T17:45:39.905Z,11.90
2022-10-09T17:48:07.701Z,11.89
2022-10-09T17:50:36.660Z,11.92
2022-10-09T17:53:04.187Z,11.98
2022-10-09T17:55:32.047Z,11.99
2022-10-09T17:57:59.321Z,11.98
2022-10-09T18:00:26.534Z,11.93
2022-10-09T18:02:53.812Z,11.89
2022-10-09T18:05:21.255Z,11.86
2022-10-09T18:07:50.224Z,11.85
2022-10-09T18:10:18.003Z,11.83
2022-10-09T18:12:45.156Z,11.74
2022-10-09T18:15:12.690Z,11.65
2022-10-09T18:17:40.061Z,11.66
2022-10-09T18:20:08.240Z,11.70
2022-10-09T18:22:36.727Z,11.70
2022-10-09T18:25:06.291Z,11.69
2022-10-09T18:27:34.386Z,11.65
2022-10-09T18:30:01.721Z,11.57
2022-10-09T18:32:29.697Z,11.55
2022-10-09T18:34:56.936Z,11.50
2022-10-09T18:37:24.236Z,11.47
2022-10-09T18:39:51.704Z,11.47
2022-10-09T18:42:20.467Z,11.46
2022-10-09T18:44:47.838Z,11.47
2022-10-09T18:47:18.158Z,11.48
2022-10-09T18:49:49.835Z,11.40
2022-10-09T18:52:18.802Z,11.40
2022-10-09T18:54:53.145Z,11.49
2022-10-09T18:57:23.456Z,11.45
2022-10-09T18:59:52.382Z,11.41
2022-10-09T19:02:22.227Z,11.30
2022-10-09T19:04:49.534Z,11.23
2022-10-09T19:07:17.002Z,11.25
2022-10-09T19:09:44.262Z,11.27
2022-10-09T19:12:11.471Z,11.30
2022-10-09T19:14:40.398Z,11.30
2022-10-09T19:17:08.067Z,11.34
2022-10-09T19:19:35.268Z,11.30
2022-10-09T19:22:02.505Z,11.31
2022-10-09T19:24:34.081Z,11.28
2022-10-09T19:27:02.354Z,11.22
2022-10-09T19:29:29.597Z,11.23
2022-10-09T19:31:58.230Z,11.26
2022-10-09T19:34:25.496Z,11.29
2022-10-09T19:36:53.015Z,11.27
2022-10-09T19:39:22.289Z,11.30
2022-10-09T19:41:51.132Z,11.31
2022-10-09T19:44:18.755Z,11.36
2022-10-09T19:46:46.017Z,11.42
2022-10-09T19:49:14.842Z,11.49
2022-10-09T19:51:42.469Z,11.47
2022-10-09T19:54:10.298Z,11.39
2022-10-09T19:56:38.107Z,11.42
2022-10-09T19:59:07.624Z,11.37
2022-10-09T20:01:37.599Z,11.36
2022-10-09T20:04:07.903Z,11.34
2022-10-09T20:06:39.528Z,11.37
2022-10-09T20:09:07.586Z,11.34
2022-10-09T20:11:35.080Z,11.39
2022-10-09T20:14:02.982Z,11.38
2022-10-09T20:16:32.228Z,11.46
2022-10-09T20:19:00.448Z,11.47
2022-10-09T20:21:29.796Z,11.48
2022-10-09T20:23:59.492Z,11.42
2022-10-09T20:26:26.998Z,11.45
2022-10-09T20:28:54.252Z,11.39
2022-10-09T20:31:23.683Z,11.35
2022-10-09T20:33:51.793Z,11.32
2022-10-09T20:36:21.207Z,11.25
2022-10-09T20:38:48.479Z,11.24
2022-10-09T20:41:17.822Z,11.25
2022-10-09T20:43:45.107Z,11.28
2022-10-09T20:46:14.721Z,11.37
2022-10-09T20:48:42.522Z,11.44
2022-10-09T20:51:09.975Z,11.44
2022-10-09T20:53:37.387Z,11.46
2022-10-09T20:56:06.816Z,11.40
2022-10-09T20:58:35.778Z,11.42
2022-10-09T21:01:06.227Z,11.38
2022-10-09T21:03:34.054Z,11.37
2022-10-09T21:06:03.632Z,11.40
2022-10-09T21:08:31.034Z,11.41
2022-10-09T21:10:58.579Z,11.39
2022-10-09T21:13:25.938Z,11.35
2022-10-09T21:15:54.694Z,11.37
2022-10-09T21:18:21.881Z,11.39
2022-10-09T21:20:49.678Z,11.39
2022-10-09T21:23:18.734Z,11.36
2022-10-09T21:25:50.208Z,11.43
2022-10-09T21:28:18.453Z,11.50
2022-10-09T21:30:45.739Z,11.48
2022-10-09T21:33:15.357Z,11.48
2022-10-09T21:35:44.711Z,11.44
2022-10-09T21:38:13.484Z,11.44
2022-10-09T21:40:40.781Z,11.40
2022-10-09T21:43:08.573Z,11.42
2022-10-09T21:45:35.956Z,11.40
2022-10-09T21:48:03.357Z,11.39
2022-10-09T21:50:33.269Z,11.41
2022-10-09T21:53:00.715Z,11.40
2022-10-09T21:55:28.787Z,11.36
2022-10-09T21:57:56.087Z,11.36
2022-10-09T22:00:23.325Z,11.39
2022-10-09T22:02:50.828Z,11.43
2022-10-09T22:05:18.678Z,11.47
2022-10-09T22:07:47.286Z,11.48
2022-10-09T22:10:14.539Z,11.49
2022-10-09T22:12:41.908Z,11.46
2022-10-09T22:15:10.020Z,11.41
2022-10-09T22:17:37.440Z,11.38
2022-10-09T22:20:05.310Z,11.39
2022-10-09T22:22:32.630Z,11.38
2022-10-09T22:25:01.245Z,11.36
2022-10-09T22:27:28.437Z,11.31
2022-10-09T22:29:55.639Z,11.24
2022-10-09T22:32:23.031Z,11.16
2022-10-09T22:34:50.990Z,11.16
2022-10-09T22:37:18.349Z,11.13
2022-10-09T22:39:45.656Z,11.14
2022-10-09T22:42:14.179Z,11.14
2022-10-09T22:44:41.639Z,11.13
2022-10-09T22:47:08.909Z,11.08
2022-10-09T22:49:36.050Z,11.11
2022-10-09T22:52:03.430Z,11.15
2022-10-09T22:54:30.720Z,11.15
2022-10-09T22:56:58.196Z,11.19
2022-10-09T22:59:26.911Z,11.23
2022-10-09T23:01:56.283Z,11.20
2022-10-09T23:04:24.459Z,11.18
2022-10-09T23:06:53.532Z,11.20
2022-10-09T23:09:21.655Z,11.23
2022-10-09T23:11:49.547Z,11.20
2022-10-09T23:14:16.937Z,11.19
2022-10-09T23:16:45.682Z,11.10
2022-10-09T23:19:13.288Z,11.02
2022-10-09T23:21:42.515Z,10.93
2022-10-09T23:24:12.481Z,10.78
2022-10-09T23:26:39.953Z,10.74
2022-10-09T23:29:09.062Z,10.67
2022-10-09T23:31:36.506Z,10.78
2022-10-09T23:34:06.241Z,10.88
2022-10-09T23:36:33.996Z,10.97
2022-10-09T23:39:02.583Z,11.04
2022-10-09T23:41:30.759Z,11.08
2022-10-09T23:43:57.998Z,11.02
2022-10-09T23:46:27.375Z,11.00
2022-10-09T23:48:55.666Z,11.01
2022-10-09T23:51:25.664Z,11.05
2022-10-09T23:53:53.487Z,11.04
2022-10-09T23:56:23.364Z,11.02
2022-10-09T23:58:51.403Z,11.04
